首页
METAR-TAF:

METAR-TAF

机场 :

Muskoka, 安大略省, 加拿大

纬度: 44-58N, 经度: 079-18W, 海拔: 280米

当前天气观测

该预报发布于1小时和14分钟前的16:00 UTC
风速10节,风向西,有时为15节阵风,在西转西南西北之间变化
温度 10°C
湿度 40%
气压 1015 hPa
能見度: 14.5公里
天空无云

METAR: CYQA 021600Z AUTO 28010G15KT 240V320 9SM CLR 10/M03 A2997 RMK SLP160

时间: 13:14 (17:14 UTC)

预报

该预报发布于3小时和36分钟前的13:38 UTC
预报有效从02日的 14点(UTC)到 03日的 02点(UTC)
风速6节,风向北转西北
能見度: 10公里
散云层高于13000英尺
成为
从 02日的 16点(UTC)到 02日的 18点(UTC)
风速10节,风向西北

TAF: CYQA 021338Z 0214/0302 33006KT P6SM SCT130 BECMG 0216/0218 32010KT RMK FCST BASED ON AUTO OBS. NXT FCST BY 022000Z

超过4000个机场的气象观测和天气预报(METAR&TAF报告)。

可查询的气象台以黄色和红色小点在地图上表示。

将鼠标移到小点上方,可查看气象台名称。

然后点击查看天气观测和预报。

如需切换地图:点击带黑十字的绿色按钮放大地图;点击带横线的绿色按钮缩小地图;或者点击绿色箭头查看邻近地区的地图。


METAR-TAF: